Terminal Aerodrome Forecast
Issued by NWS

Home | Current Version | Previous Version | Text Only | Print | Product List | Glossary On
Versions: 1 2 3 4 5 6 7 8 9 10 11 12 13 14 15
000
FTUS46 KMTR 032300
TAFSNS
TAF
KSNS 032320Z 0400/0424 25008KT P6SM SKC
     FM040400 VRB03KT P6SM SKC
     FM041000 10009KT P6SM SKC
     FM042000 29006KT P6SM SKC=

USA.gov is the U.S. government's official web portal to all federal, state and local government web resources and services.